sensor_id;sensor_type;location;lat;lon;timestamp;temperature;humidity
3868;DHT22;1949;48.152;11.528;2022-07-29T00:01:15;25.50;41.70
3868;DHT22;1949;48.152;11.528;2022-07-29T00:03:42;25.50;41.70
3868;DHT22;1949;48.152;11.528;2022-07-29T00:06:10;25.40;41.80
3868;DHT22;1949;48.152;11.528;2022-07-29T00:08:36;25.40;41.90
3868;DHT22;1949;48.152;11.528;2022-07-29T00:11:02;25.40;42.00
3868;DHT22;1949;48.152;11.528;2022-07-29T00:13:36;25.40;42.20
3868;DHT22;1949;48.152;11.528;2022-07-29T00:16:02;25.40;42.10
3868;DHT22;1949;48.152;11.528;2022-07-29T00:18:28;25.40;42.40
3868;DHT22;1949;48.152;11.528;2022-07-29T00:20:54;25.40;42.60
3868;DHT22;1949;48.152;11.528;2022-07-29T00:23:20;25.40;42.50
3868;DHT22;1949;48.152;11.528;2022-07-29T00:25:45;25.40;42.70
3868;DHT22;1949;48.152;11.528;2022-07-29T00:28:11;25.40;42.80
3868;DHT22;1949;48.152;11.528;2022-07-29T00:30:37;25.30;42.80
3868;DHT22;1949;48.152;11.528;2022-07-29T00:33:02;25.30;43.10
3868;DHT22;1949;48.152;11.528;2022-07-29T00:35:28;25.30;43.20
3868;DHT22;1949;48.152;11.528;2022-07-29T00:38:13;25.40;43.30
3868;DHT22;1949;48.152;11.528;2022-07-29T00:40:40;25.40;43.30
3868;DHT22;1949;48.152;11.528;2022-07-29T00:43:05;25.40;43.40
3868;DHT22;1949;48.152;11.528;2022-07-29T00:45:31;25.40;43.30
3868;DHT22;1949;48.152;11.528;2022-07-29T00:47:57;25.40;43.20
3868;DHT22;1949;48.152;11.528;2022-07-29T00:50:23;25.40;43.30
3868;DHT22;1949;48.152;11.528;2022-07-29T00:52:50;25.50;43.10
3868;DHT22;1949;48.152;11.528;2022-07-29T00:55:17;25.50;43.10
3868;DHT22;1949;48.152;11.528;2022-07-29T00:57:44;25.50;43.10
3868;DHT22;1949;48.152;11.528;2022-07-29T01:00:19;25.50;43.10
3868;DHT22;1949;48.152;11.528;2022-07-29T01:02:46;25.50;43.10
3868;DHT22;1949;48.152;11.528;2022-07-29T01:05:19;25.50;43.10
3868;DHT22;1949;48.152;11.528;2022-07-29T01:07:47;25.60;43.10
3868;DHT22;1949;48.152;11.528;2022-07-29T01:10:15;25.70;42.70
3868;DHT22;1949;48.152;11.528;2022-07-29T01:12:43;25.70;42.50
3868;DHT22;1949;48.152;11.528;2022-07-29T01:15:09;25.80;42.50
3868;DHT22;1949;48.152;11.528;2022-07-29T01:17:58;25.80;42.30
3868;DHT22;1949;48.152;11.528;2022-07-29T01:20:58;25.80;42.10
3868;DHT22;1949;48.152;11.528;2022-07-29T01:31:56;25.80;41.80
3868;DHT22;1949;48.152;11.528;2022-07-29T01:34:27;25.90;41.80
3868;DHT22;1949;48.152;11.528;2022-07-29T01:37:12;25.80;41.70
3868;DHT22;1949;48.152;11.528;2022-07-29T01:39:41;25.90;41.80
3868;DHT22;1949;48.152;11.528;2022-07-29T01:42:31;25.90;41.50
3868;DHT22;1949;48.152;11.528;2022-07-29T01:45:14;25.90;41.40
3868;DHT22;1949;48.152;11.528;2022-07-29T01:48:03;25.90;41.10
3868;DHT22;1949;48.152;11.528;2022-07-29T01:50:33;25.80;41.20
3868;DHT22;1949;48.152;11.528;2022-07-29T01:53:01;25.70;41.10
3868;DHT22;1949;48.152;11.528;2022-07-29T01:55:31;25.70;41.20
3868;DHT22;1949;48.152;11.528;2022-07-29T01:57:58;25.60;41.20
3868;DHT22;1949;48.152;11.528;2022-07-29T02:00:27;25.40;41.50
3868;DHT22;1949;48.152;11.528;2022-07-29T02:02:56;25.40;41.60
3868;DHT22;1949;48.152;11.528;2022-07-29T02:05:23;25.30;41.60
3868;DHT22;1949;48.152;11.528;2022-07-29T02:07:53;25.50;41.70
3868;DHT22;1949;48.152;11.528;2022-07-29T02:10:25;25.50;41.70
3868;DHT22;1949;48.152;11.528;2022-07-29T02:12:51;25.50;41.70
3868;DHT22;1949;48.152;11.528;2022-07-29T02:15:18;25.60;41.70
3868;DHT22;1949;48.152;11.528;2022-07-29T02:17:52;25.60;41.60
3868;DHT22;1949;48.152;11.528;2022-07-29T02:20:19;25.60;41.50
3868;DHT22;1949;48.152;11.528;2022-07-29T02:22:48;25.60;41.50
3868;DHT22;1949;48.152;11.528;2022-07-29T02:25:18;25.60;41.60
3868;DHT22;1949;48.152;11.528;2022-07-29T02:27:44;25.70;41.70
3868;DHT22;1949;48.152;11.528;2022-07-29T02:30:12;25.70;41.50
3868;DHT22;1949;48.152;11.528;2022-07-29T02:32:41;25.70;41.50
3868;DHT22;1949;48.152;11.528;2022-07-29T02:35:08;25.80;41.60
3868;DHT22;1949;48.152;11.528;2022-07-29T02:37:36;25.80;41.50
3868;DHT22;1949;48.152;11.528;2022-07-29T02:40:03;25.90;41.40
3868;DHT22;1949;48.152;11.528;2022-07-29T02:42:30;25.80;41.20
3868;DHT22;1949;48.152;11.528;2022-07-29T02:44:57;25.80;41.40
3868;DHT22;1949;48.152;11.528;2022-07-29T02:47:43;25.90;41.30
3868;DHT22;1949;48.152;11.528;2022-07-29T02:50:38;25.90;41.30
3868;DHT22;1949;48.152;11.528;2022-07-29T02:53:07;25.90;41.30
3868;DHT22;1949;48.152;11.528;2022-07-29T02:55:39;25.90;41.30
3868;DHT22;1949;48.152;11.528;2022-07-29T02:58:13;25.90;41.40
3868;DHT22;1949;48.152;11.528;2022-07-29T03:00:42;26.00;41.30
3868;DHT22;1949;48.152;11.528;2022-07-29T03:03:12;26.10;41.20
3868;DHT22;1949;48.152;11.528;2022-07-29T03:05:39;26.10;41.30
3868;DHT22;1949;48.152;11.528;2022-07-29T03:08:07;26.10;41.20
3868;DHT22;1949;48.152;11.528;2022-07-29T03:10:34;26.10;41.20
3868;DHT22;1949;48.152;11.528;2022-07-29T03:13:04;26.20;41.10
3868;DHT22;1949;48.152;11.528;2022-07-29T03:15:32;26.20;41.10
3868;DHT22;1949;48.152;11.528;2022-07-29T03:18:09;26.20;41.10
3868;DHT22;1949;48.152;11.528;2022-07-29T03:20:37;26.30;41.10
3868;DHT22;1949;48.152;11.528;2022-07-29T03:23:03;26.30;41.10
3868;DHT22;1949;48.152;11.528;2022-07-29T03:25:31;26.30;41.00
3868;DHT22;1949;48.152;11.528;2022-07-29T03:27:59;26.30;41.00
3868;DHT22;1949;48.152;11.528;2022-07-29T03:30:25;26.30;41.00
3868;DHT22;1949;48.152;11.528;2022-07-29T03:32:56;26.30;40.90
3868;DHT22;1949;48.152;11.528;2022-07-29T03:35:22;26.40;41.00
3868;DHT22;1949;48.152;11.528;2022-07-29T03:37:48;26.40;41.00
3868;DHT22;1949;48.152;11.528;2022-07-29T03:40:23;26.40;41.00
3868;DHT22;1949;48.152;11.528;2022-07-29T03:42:53;26.40;41.00
3868;DHT22;1949;48.152;11.528;2022-07-29T03:45:20;26.40;40.90
3868;DHT22;1949;48.152;11.528;2022-07-29T03:47:50;26.40;40.90
3868;DHT22;1949;48.152;11.528;2022-07-29T03:50:18;26.40;40.90
3868;DHT22;1949;48.152;11.528;2022-07-29T03:52:47;26.40;40.90
3868;DHT22;1949;48.152;11.528;2022-07-29T03:55:14;26.40;40.90
3868;DHT22;1949;48.152;11.528;2022-07-29T03:57:41;26.40;40.90
3868;DHT22;1949;48.152;11.528;2022-07-29T04:00:09;26.40;41.00
3868;DHT22;1949;48.152;11.528;2022-07-29T04:02:36;26.40;40.90
3868;DHT22;1949;48.152;11.528;2022-07-29T04:05:03;26.40;40.90
3868;DHT22;1949;48.152;11.528;2022-07-29T04:07:29;26.40;40.90
3868;DHT22;1949;48.152;11.528;2022-07-29T04:09:55;26.40;40.90
3868;DHT22;1949;48.152;11.528;2022-07-29T04:12:23;26.40;41.50
3868;DHT22;1949;48.152;11.528;2022-07-29T04:14:48;26.40;41.00
3868;DHT22;1949;48.152;11.528;2022-07-29T04:17:15;26.40;41.00
3868;DHT22;1949;48.152;11.528;2022-07-29T04:19:41;26.40;41.10
3868;DHT22;1949;48.152;11.528;2022-07-29T04:22:07;26.40;41.10
3868;DHT22;1949;48.152;11.528;2022-07-29T04:24:32;26.40;41.10
3868;DHT22;1949;48.152;11.528;2022-07-29T04:26:58;26.40;41.10
3868;DHT22;1949;48.152;11.528;2022-07-29T04:29:24;26.40;41.20
3868;DHT22;1949;48.152;11.528;2022-07-29T04:31:51;26.40;41.30
3868;DHT22;1949;48.152;11.528;2022-07-29T04:34:17;26.30;41.40
3868;DHT22;1949;48.152;11.528;2022-07-29T04:36:44;26.30;41.40
3868;DHT22;1949;48.152;11.528;2022-07-29T04:39:10;26.40;41.50
3868;DHT22;1949;48.152;11.528;2022-07-29T04:41:36;26.40;41.50
3868;DHT22;1949;48.152;11.528;2022-07-29T04:44:02;26.30;41.60
3868;DHT22;1949;48.152;11.528;2022-07-29T04:46:30;26.30;41.60
3868;DHT22;1949;48.152;11.528;2022-07-29T04:48:56;26.30;41.80
3868;DHT22;1949;48.152;11.528;2022-07-29T04:51:22;26.30;41.90
3868;DHT22;1949;48.152;11.528;2022-07-29T04:53:47;26.30;42.00
3868;DHT22;1949;48.152;11.528;2022-07-29T04:56:13;26.30;42.00
3868;DHT22;1949;48.152;11.528;2022-07-29T04:58:39;26.30;42.10
3868;DHT22;1949;48.152;11.528;2022-07-29T05:01:05;26.40;42.20
3868;DHT22;1949;48.152;11.528;2022-07-29T05:03:30;26.40;42.30
3868;DHT22;1949;48.152;11.528;2022-07-29T05:05:56;26.40;42.30
3868;DHT22;1949;48.152;11.528;2022-07-29T05:08:22;26.40;42.20
3868;DHT22;1949;48.152;11.528;2022-07-29T05:10:48;26.40;42.10
3868;DHT22;1949;48.152;11.528;2022-07-29T05:13:13;26.40;42.20
3868;DHT22;1949;48.152;11.528;2022-07-29T05:15:39;26.30;42.20
3868;DHT22;1949;48.152;11.528;2022-07-29T05:18:06;26.40;42.40
3868;DHT22;1949;48.152;11.528;2022-07-29T05:20:32;26.40;43.00
3868;DHT22;1949;48.152;11.528;2022-07-29T05:23:00;26.30;42.30
3868;DHT22;1949;48.152;11.528;2022-07-29T05:25:28;26.30;42.50
3868;DHT22;1949;48.152;11.528;2022-07-29T05:27:54;26.30;42.50
3868;DHT22;1949;48.152;11.528;2022-07-29T05:30:20;26.30;43.10
3868;DHT22;1949;48.152;11.528;2022-07-29T05:32:46;26.40;42.70
3868;DHT22;1949;48.152;11.528;2022-07-29T05:35:12;26.30;42.70
3868;DHT22;1949;48.152;11.528;2022-07-29T05:37:40;26.30;42.50
3868;DHT22;1949;48.152;11.528;2022-07-29T05:40:07;26.30;42.50
3868;DHT22;1949;48.152;11.528;2022-07-29T05:42:34;26.30;42.50
3868;DHT22;1949;48.152;11.528;2022-07-29T05:45:00;26.30;42.20
3868;DHT22;1949;48.152;11.528;2022-07-29T05:47:27;26.30;42.10
3868;DHT22;1949;48.152;11.528;2022-07-29T05:49:52;26.40;42.00
3868;DHT22;1949;48.152;11.528;2022-07-29T05:52:20;26.30;42.00
3868;DHT22;1949;48.152;11.528;2022-07-29T05:54:45;26.30;42.10
3868;DHT22;1949;48.152;11.528;2022-07-29T05:57:19;26.30;42.00
3868;DHT22;1949;48.152;11.528;2022-07-29T05:59:45;26.30;41.80
3868;DHT22;1949;48.152;11.528;2022-07-29T06:02:11;26.30;42.00
3868;DHT22;1949;48.152;11.528;2022-07-29T06:04:37;26.30;41.90
3868;DHT22;1949;48.152;11.528;2022-07-29T06:07:03;26.30;41.70
3868;DHT22;1949;48.152;11.528;2022-07-29T06:09:29;26.20;41.70
3868;DHT22;1949;48.152;11.528;2022-07-29T06:11:55;26.20;41.80
3868;DHT22;1949;48.152;11.528;2022-07-29T06:14:21;26.10;41.90
3868;DHT22;1949;48.152;11.528;2022-07-29T06:16:47;26.10;41.80
3868;DHT22;1949;48.152;11.528;2022-07-29T06:19:12;26.10;41.60
3868;DHT22;1949;48.152;11.528;2022-07-29T06:21:43;26.00;41.90
3868;DHT22;1949;48.152;11.528;2022-07-29T06:24:11;26.00;41.90
3868;DHT22;1949;48.152;11.528;2022-07-29T06:26:37;26.00;41.90
3868;DHT22;1949;48.152;11.528;2022-07-29T06:29:03;25.90;42.00
3868;DHT22;1949;48.152;11.528;2022-07-29T06:31:29;26.00;42.10
3868;DHT22;1949;48.152;11.528;2022-07-29T06:33:55;26.00;42.10
3868;DHT22;1949;48.152;11.528;2022-07-29T06:36:20;26.00;41.80
3868;DHT22;1949;48.152;11.528;2022-07-29T06:38:46;26.00;41.90
3868;DHT22;1949;48.152;11.528;2022-07-29T06:41:12;26.00;42.00
3868;DHT22;1949;48.152;11.528;2022-07-29T06:43:42;26.10;42.10
3868;DHT22;1949;48.152;11.528;2022-07-29T06:46:13;26.10;42.10
3868;DHT22;1949;48.152;11.528;2022-07-29T06:48:41;26.20;41.90
3868;DHT22;1949;48.152;11.528;2022-07-29T06:51:08;26.20;41.90
3868;DHT22;1949;48.152;11.528;2022-07-29T06:53:35;26.20;41.50
3868;DHT22;1949;48.152;11.528;2022-07-29T06:56:02;26.10;41.50
3868;DHT22;1949;48.152;11.528;2022-07-29T06:58:28;26.10;41.70
3868;DHT22;1949;48.152;11.528;2022-07-29T07:00:58;26.10;41.70
3868;DHT22;1949;48.152;11.528;2022-07-29T07:03:26;26.10;41.80
3868;DHT22;1949;48.152;11.528;2022-07-29T07:05:53;26.10;41.90
3868;DHT22;1949;48.152;11.528;2022-07-29T07:08:21;26.10;41.80
3868;DHT22;1949;48.152;11.528;2022-07-29T07:10:47;26.20;41.80
3868;DHT22;1949;48.152;11.528;2022-07-29T07:13:14;26.20;41.80
3868;DHT22;1949;48.152;11.528;2022-07-29T07:15:40;26.20;41.70
3868;DHT22;1949;48.152;11.528;2022-07-29T07:18:06;26.30;41.70
3868;DHT22;1949;48.152;11.528;2022-07-29T07:20:34;26.30;41.70
3868;DHT22;1949;48.152;11.528;2022-07-29T07:23:00;26.40;41.50
3868;DHT22;1949;48.152;11.528;2022-07-29T07:25:26;26.40;41.40
3868;DHT22;1949;48.152;11.528;2022-07-29T07:27:52;26.40;41.40
3868;DHT22;1949;48.152;11.528;2022-07-29T07:30:18;26.50;41.40
3868;DHT22;1949;48.152;11.528;2022-07-29T07:32:44;26.50;41.30
3868;DHT22;1949;48.152;11.528;2022-07-29T07:35:10;26.60;41.40
3868;DHT22;1949;48.152;11.528;2022-07-29T07:37:36;26.60;41.30
3868;DHT22;1949;48.152;11.528;2022-07-29T07:40:03;26.60;41.30
3868;DHT22;1949;48.152;11.528;2022-07-29T07:42:29;26.60;41.30
3868;DHT22;1949;48.152;11.528;2022-07-29T07:44:55;26.60;41.10
3868;DHT22;1949;48.152;11.528;2022-07-29T07:47:20;26.60;41.00
3868;DHT22;1949;48.152;11.528;2022-07-29T07:49:47;26.60;40.80
3868;DHT22;1949;48.152;11.528;2022-07-29T07:52:13;26.60;40.90
3868;DHT22;1949;48.152;11.528;2022-07-29T07:54:39;26.70;40.70
3868;DHT22;1949;48.152;11.528;2022-07-29T07:57:05;26.60;40.70
3868;DHT22;1949;48.152;11.528;2022-07-29T07:59:31;26.60;40.70
3868;DHT22;1949;48.152;11.528;2022-07-29T08:01:57;26.70;40.60
3868;DHT22;1949;48.152;11.528;2022-07-29T08:04:23;26.70;40.50
3868;DHT22;1949;48.152;11.528;2022-07-29T08:06:50;26.70;40.30
3868;DHT22;1949;48.152;11.528;2022-07-29T08:09:16;26.70;40.30
3868;DHT22;1949;48.152;11.528;2022-07-29T08:11:41;26.70;40.30
3868;DHT22;1949;48.152;11.528;2022-07-29T08:14:07;26.70;40.30
3868;DHT22;1949;48.152;11.528;2022-07-29T08:16:33;26.80;40.40
3868;DHT22;1949;48.152;11.528;2022-07-29T08:18:59;26.80;40.40
3868;DHT22;1949;48.152;11.528;2022-07-29T08:21:25;26.80;40.30
3868;DHT22;1949;48.152;11.528;2022-07-29T08:23:51;26.90;40.40
3868;DHT22;1949;48.152;11.528;2022-07-29T08:26:43;26.90;40.20
3868;DHT22;1949;48.152;11.528;2022-07-29T08:29:10;26.80;40.20
3868;DHT22;1949;48.152;11.528;2022-07-29T08:31:36;26.90;40.30
3868;DHT22;1949;48.152;11.528;2022-07-29T08:34:03;26.90;40.40
3868;DHT22;1949;48.152;11.528;2022-07-29T08:36:29;26.90;40.30
3868;DHT22;1949;48.152;11.528;2022-07-29T08:38:55;27.00;40.30
3868;DHT22;1949;48.152;11.528;2022-07-29T08:41:21;27.00;40.30
3868;DHT22;1949;48.152;11.528;2022-07-29T08:43:48;27.00;40.30
3868;DHT22;1949;48.152;11.528;2022-07-29T08:46:15;27.00;40.30
3868;DHT22;1949;48.152;11.528;2022-07-29T08:48:42;27.00;40.30
3868;DHT22;1949;48.152;11.528;2022-07-29T08:51:13;27.00;40.20
3868;DHT22;1949;48.152;11.528;2022-07-29T08:53:42;27.10;40.00
3868;DHT22;1949;48.152;11.528;2022-07-29T08:56:12;27.10;40.10
3868;DHT22;1949;48.152;11.528;2022-07-29T08:58:45;27.10;40.10
3868;DHT22;1949;48.152;11.528;2022-07-29T09:01:14;27.20;40.20
3868;DHT22;1949;48.152;11.528;2022-07-29T09:03:41;27.20;40.20
3868;DHT22;1949;48.152;11.528;2022-07-29T09:06:09;27.20;40.20
3868;DHT22;1949;48.152;11.528;2022-07-29T09:08:38;27.30;40.10
3868;DHT22;1949;48.152;11.528;2022-07-29T09:11:04;27.30;40.10
3868;DHT22;1949;48.152;11.528;2022-07-29T09:13:30;27.30;40.10
3868;DHT22;1949;48.152;11.528;2022-07-29T09:15:55;27.30;40.10
3868;DHT22;1949;48.152;11.528;2022-07-29T09:18:40;27.30;40.20
3868;DHT22;1949;48.152;11.528;2022-07-29T09:21:08;27.30;40.20
3868;DHT22;1949;48.152;11.528;2022-07-29T09:24:12;27.40;40.30
3868;DHT22;1949;48.152;11.528;2022-07-29T09:26:43;27.40;40.40
3868;DHT22;1949;48.152;11.528;2022-07-29T09:31:41;27.40;40.00
3868;DHT22;1949;48.152;11.528;2022-07-29T09:34:08;27.40;40.00
3868;DHT22;1949;48.152;11.528;2022-07-29T09:36:46;27.40;40.60
3868;DHT22;1949;48.152;11.528;2022-07-29T09:39:13;27.30;40.00
3868;DHT22;1949;48.152;11.528;2022-07-29T09:41:50;27.30;40.10
3868;DHT22;1949;48.152;11.528;2022-07-29T09:44:18;27.30;40.20
3868;DHT22;1949;48.152;11.528;2022-07-29T09:46:58;27.30;40.20
3868;DHT22;1949;48.152;11.528;2022-07-29T09:49:24;27.30;40.20
3868;DHT22;1949;48.152;11.528;2022-07-29T09:52:03;27.30;40.20
3868;DHT22;1949;48.152;11.528;2022-07-29T09:54:30;27.30;40.30
3868;DHT22;1949;48.152;11.528;2022-07-29T09:57:03;27.40;40.40
3868;DHT22;1949;48.152;11.528;2022-07-29T09:59:30;27.40;40.30
3868;DHT22;1949;48.152;11.528;2022-07-29T10:01:56;27.50;40.30
3868;DHT22;1949;48.152;11.528;2022-07-29T10:04:21;27.50;40.30
3868;DHT22;1949;48.152;11.528;2022-07-29T10:06:58;27.50;40.20
3868;DHT22;1949;48.152;11.528;2022-07-29T10:09:25;27.50;40.30
3868;DHT22;1949;48.152;11.528;2022-07-29T10:12:23;27.50;40.30
3868;DHT22;1949;48.152;11.528;2022-07-29T10:14:50;27.50;40.20
3868;DHT22;1949;48.152;11.528;2022-07-29T10:17:17;27.50;40.10
3868;DHT22;1949;48.152;11.528;2022-07-29T10:19:44;27.60;40.10
3868;DHT22;1949;48.152;11.528;2022-07-29T10:22:10;27.60;40.70
3868;DHT22;1949;48.152;11.528;2022-07-29T10:24:38;27.60;40.10
3868;DHT22;1949;48.152;11.528;2022-07-29T10:27:06;27.60;40.10
3868;DHT22;1949;48.152;11.528;2022-07-29T10:29:33;27.60;40.10
3868;DHT22;1949;48.152;11.528;2022-07-29T10:43:25;27.70;40.00
3868;DHT22;1949;48.152;11.528;2022-07-29T10:45:56;27.70;40.00
3868;DHT22;1949;48.152;11.528;2022-07-29T10:48:23;27.70;40.00
3868;DHT22;1949;48.152;11.528;2022-07-29T10:50:57;27.80;40.10
3868;DHT22;1949;48.152;11.528;2022-07-29T10:53:24;27.80;40.10
3868;DHT22;1949;48.152;11.528;2022-07-29T10:55:51;27.80;40.10
3868;DHT22;1949;48.152;11.528;2022-07-29T10:58:22;27.80;40.10
3868;DHT22;1949;48.152;11.528;2022-07-29T11:00:54;27.80;40.40
3868;DHT22;1949;48.152;11.528;2022-07-29T11:03:43;27.80;40.20
3868;DHT22;1949;48.152;11.528;2022-07-29T11:06:11;27.90;40.20
3868;DHT22;1949;48.152;11.528;2022-07-29T11:08:44;27.90;39.90
3868;DHT22;1949;48.152;11.528;2022-07-29T11:14:04;27.90;40.00
3868;DHT22;1949;48.152;11.528;2022-07-29T11:19:20;28.00;39.60
3868;DHT22;1949;48.152;11.528;2022-07-29T11:21:46;28.00;39.30
3868;DHT22;1949;48.152;11.528;2022-07-29T11:24:27;28.00;39.20
3868;DHT22;1949;48.152;11.528;2022-07-29T11:27:13;28.00;39.40
3868;DHT22;1949;48.152;11.528;2022-07-29T11:32:14;28.10;39.30
3868;DHT22;1949;48.152;11.528;2022-07-29T11:34:41;28.10;39.20
3868;DHT22;1949;48.152;11.528;2022-07-29T11:47:25;28.40;38.40
3868;DHT22;1949;48.152;11.528;2022-07-29T11:49:55;28.40;38.00
3868;DHT22;1949;48.152;11.528;2022-07-29T11:52:21;28.40;37.90
3868;DHT22;1949;48.152;11.528;2022-07-29T11:54:48;28.40;37.80
3868;DHT22;1949;48.152;11.528;2022-07-29T11:57:18;28.40;37.80
3868;DHT22;1949;48.152;11.528;2022-07-29T11:59:46;28.40;37.70
3868;DHT22;1949;48.152;11.528;2022-07-29T12:02:14;28.50;37.80
3868;DHT22;1949;48.152;11.528;2022-07-29T12:04:50;28.50;37.90
3868;DHT22;1949;48.152;11.528;2022-07-29T12:07:40;28.50;37.80
3868;DHT22;1949;48.152;11.528;2022-07-29T12:10:07;28.50;37.70
3868;DHT22;1949;48.152;11.528;2022-07-29T12:12:37;28.50;37.80
3868;DHT22;1949;48.152;11.528;2022-07-29T12:15:14;28.50;37.70
3868;DHT22;1949;48.152;11.528;2022-07-29T12:17:41;28.50;37.70
3868;DHT22;1949;48.152;11.528;2022-07-29T12:20:07;28.60;37.70
3868;DHT22;1949;48.152;11.528;2022-07-29T12:22:38;28.50;37.60
3868;DHT22;1949;48.152;11.528;2022-07-29T12:25:15;28.50;37.60
3868;DHT22;1949;48.152;11.528;2022-07-29T12:27:42;28.60;37.70
3868;DHT22;1949;48.152;11.528;2022-07-29T12:30:15;28.60;37.60
3868;DHT22;1949;48.152;11.528;2022-07-29T12:32:46;28.60;37.60
3868;DHT22;1949;48.152;11.528;2022-07-29T12:35:15;28.60;37.60
3868;DHT22;1949;48.152;11.528;2022-07-29T12:37:43;28.60;37.60
3868;DHT22;1949;48.152;11.528;2022-07-29T12:40:11;28.60;37.60
3868;DHT22;1949;48.152;11.528;2022-07-29T12:42:39;28.70;37.50
3868;DHT22;1949;48.152;11.528;2022-07-29T12:45:05;28.70;37.30
3868;DHT22;1949;48.152;11.528;2022-07-29T12:47:32;28.70;37.30
3868;DHT22;1949;48.152;11.528;2022-07-29T12:50:12;28.70;37.40
3868;DHT22;1949;48.152;11.528;2022-07-29T12:52:44;28.60;37.40
3868;DHT22;1949;48.152;11.528;2022-07-29T12:55:11;28.70;37.30
3868;DHT22;1949;48.152;11.528;2022-07-29T12:57:49;28.70;37.10
3868;DHT22;1949;48.152;11.528;2022-07-29T13:00:22;28.70;37.20
3868;DHT22;1949;48.152;11.528;2022-07-29T13:02:58;28.60;37.10
3868;DHT22;1949;48.152;11.528;2022-07-29T13:05:40;28.60;37.00
3868;DHT22;1949;48.152;11.528;2022-07-29T13:08:15;28.60;37.20
3868;DHT22;1949;48.152;11.528;2022-07-29T13:10:41;28.60;37.00
3868;DHT22;1949;48.152;11.528;2022-07-29T13:13:10;28.60;37.10
3868;DHT22;1949;48.152;11.528;2022-07-29T13:15:39;28.50;37.00
3868;DHT22;1949;48.152;11.528;2022-07-29T13:18:25;28.50;37.00
3868;DHT22;1949;48.152;11.528;2022-07-29T13:20:52;28.50;37.20
3868;DHT22;1949;48.152;11.528;2022-07-29T13:23:19;28.40;37.30
3868;DHT22;1949;48.152;11.528;2022-07-29T13:25:47;28.50;37.40
3868;DHT22;1949;48.152;11.528;2022-07-29T13:28:12;28.40;37.30
3868;DHT22;1949;48.152;11.528;2022-07-29T13:30:40;28.40;37.50
3868;DHT22;1949;48.152;11.528;2022-07-29T13:33:06;28.40;37.50
3868;DHT22;1949;48.152;11.528;2022-07-29T13:35:33;28.40;37.70
3868;DHT22;1949;48.152;11.528;2022-07-29T13:37:59;28.40;37.60
3868;DHT22;1949;48.152;11.528;2022-07-29T13:40:25;28.40;37.70
3868;DHT22;1949;48.152;11.528;2022-07-29T13:42:51;28.30;37.60
3868;DHT22;1949;48.152;11.528;2022-07-29T13:45:18;28.30;37.70
3868;DHT22;1949;48.152;11.528;2022-07-29T13:48:00;28.30;37.70
3868;DHT22;1949;48.152;11.528;2022-07-29T13:50:32;28.30;37.60
3868;DHT22;1949;48.152;11.528;2022-07-29T13:52:58;28.30;37.60
3868;DHT22;1949;48.152;11.528;2022-07-29T13:55:24;28.30;37.70
3868;DHT22;1949;48.152;11.528;2022-07-29T13:57:50;28.30;37.60
3868;DHT22;1949;48.152;11.528;2022-07-29T14:00:16;28.30;37.70
3868;DHT22;1949;48.152;11.528;2022-07-29T14:02:44;28.30;37.60
3868;DHT22;1949;48.152;11.528;2022-07-29T14:05:11;28.30;37.40
3868;DHT22;1949;48.152;11.528;2022-07-29T14:07:37;28.30;37.40
3868;DHT22;1949;48.152;11.528;2022-07-29T14:10:06;28.30;37.40
3868;DHT22;1949;48.152;11.528;2022-07-29T14:12:38;28.40;37.40
3868;DHT22;1949;48.152;11.528;2022-07-29T14:15:06;28.30;37.60
3868;DHT22;1949;48.152;11.528;2022-07-29T14:17:35;28.30;37.00
3868;DHT22;1949;48.152;11.528;2022-07-29T14:20:01;28.30;37.20
3868;DHT22;1949;48.152;11.528;2022-07-29T14:22:27;28.30;37.30
3868;DHT22;1949;48.152;11.528;2022-07-29T14:24:52;28.30;37.80
3868;DHT22;1949;48.152;11.528;2022-07-29T14:27:18;28.30;37.20
3868;DHT22;1949;48.152;11.528;2022-07-29T14:29:44;28.30;37.20
3868;DHT22;1949;48.152;11.528;2022-07-29T14:32:09;28.40;37.40
3868;DHT22;1949;48.152;11.528;2022-07-29T14:34:36;28.40;37.20
3868;DHT22;1949;48.152;11.528;2022-07-29T14:37:03;28.40;37.20
3868;DHT22;1949;48.152;11.528;2022-07-29T14:39:31;28.40;37.30
3868;DHT22;1949;48.152;11.528;2022-07-29T14:41:57;28.40;37.40
3868;DHT22;1949;48.152;11.528;2022-07-29T14:44:22;28.40;37.30
3868;DHT22;1949;48.152;11.528;2022-07-29T14:46:48;28.50;37.30
3868;DHT22;1949;48.152;11.528;2022-07-29T14:49:15;28.50;37.40
3868;DHT22;1949;48.152;11.528;2022-07-29T14:51:40;28.50;37.40
3868;DHT22;1949;48.152;11.528;2022-07-29T14:54:06;28.50;37.40
3868;DHT22;1949;48.152;11.528;2022-07-29T14:56:32;28.50;37.50
3868;DHT22;1949;48.152;11.528;2022-07-29T14:58:58;28.50;37.60
3868;DHT22;1949;48.152;11.528;2022-07-29T15:01:24;28.40;37.50
3868;DHT22;1949;48.152;11.528;2022-07-29T15:03:50;28.40;37.50
3868;DHT22;1949;48.152;11.528;2022-07-29T15:06:16;28.40;37.50
3868;DHT22;1949;48.152;11.528;2022-07-29T15:08:42;28.30;37.60
3868;DHT22;1949;48.152;11.528;2022-07-29T15:11:09;28.30;37.80
3868;DHT22;1949;48.152;11.528;2022-07-29T15:13:34;28.30;37.80
3868;DHT22;1949;48.152;11.528;2022-07-29T15:16:00;28.30;37.80
3868;DHT22;1949;48.152;11.528;2022-07-29T15:18:26;28.30;37.90
3868;DHT22;1949;48.152;11.528;2022-07-29T15:20:52;28.20;37.90
3868;DHT22;1949;48.152;11.528;2022-07-29T15:23:17;28.20;38.00
3868;DHT22;1949;48.152;11.528;2022-07-29T15:25:43;28.20;38.10
3868;DHT22;1949;48.152;11.528;2022-07-29T15:28:09;28.20;38.20
3868;DHT22;1949;48.152;11.528;2022-07-29T15:30:35;28.20;38.30
3868;DHT22;1949;48.152;11.528;2022-07-29T15:33:08;28.20;38.50
3868;DHT22;1949;48.152;11.528;2022-07-29T15:35:38;28.20;38.70
3868;DHT22;1949;48.152;11.528;2022-07-29T15:38:04;28.10;38.90
3868;DHT22;1949;48.152;11.528;2022-07-29T15:40:30;28.10;39.00
3868;DHT22;1949;48.152;11.528;2022-07-29T15:42:56;28.10;39.00
3868;DHT22;1949;48.152;11.528;2022-07-29T15:45:22;28.10;39.70
3868;DHT22;1949;48.152;11.528;2022-07-29T15:47:48;28.10;39.30
3868;DHT22;1949;48.152;11.528;2022-07-29T15:50:14;28.10;39.40
3868;DHT22;1949;48.152;11.528;2022-07-29T15:52:44;28.00;39.50
3868;DHT22;1949;48.152;11.528;2022-07-29T15:55:10;28.00;39.50
3868;DHT22;1949;48.152;11.528;2022-07-29T15:57:36;28.00;39.70
3868;DHT22;1949;48.152;11.528;2022-07-29T16:00:03;28.00;39.60
3868;DHT22;1949;48.152;11.528;2022-07-29T16:02:29;28.00;39.70
3868;DHT22;1949;48.152;11.528;2022-07-29T16:04:54;28.00;39.70
3868;DHT22;1949;48.152;11.528;2022-07-29T16:07:20;28.00;39.70
3868;DHT22;1949;48.152;11.528;2022-07-29T16:09:46;28.00;39.80
3868;DHT22;1949;48.152;11.528;2022-07-29T16:12:12;28.00;39.70
3868;DHT22;1949;48.152;11.528;2022-07-29T16:14:37;27.90;39.80
3868;DHT22;1949;48.152;11.528;2022-07-29T16:17:03;27.90;39.90
3868;DHT22;1949;48.152;11.528;2022-07-29T16:19:29;27.90;39.90
3868;DHT22;1949;48.152;11.528;2022-07-29T16:21:55;27.90;39.90
3868;DHT22;1949;48.152;11.528;2022-07-29T16:24:21;27.90;40.00
3868;DHT22;1949;48.152;11.528;2022-07-29T16:26:47;27.90;40.10
3868;DHT22;1949;48.152;11.528;2022-07-29T16:29:12;27.90;40.20
3868;DHT22;1949;48.152;11.528;2022-07-29T16:31:38;27.80;40.10
3868;DHT22;1949;48.152;11.528;2022-07-29T16:34:04;27.80;40.30